createdAt,value
2018-06-24T04:33:02.878Z,17.10
2018-06-24T04:35:31.772Z,16.60
2018-06-24T04:38:00.692Z,16.00
2018-06-24T04:40:29.602Z,15.60
2018-06-24T04:42:58.536Z,15.50
2018-06-24T04:45:27.487Z,15.20
2018-06-24T04:47:56.371Z,15.00
2018-06-24T04:50:26.315Z,15.00
2018-06-24T04:52:55.232Z,15.00
2018-06-24T04:55:24.176Z,15.00
2018-06-24T04:57:53.084Z,14.70
2018-06-24T05:00:22.321Z,14.80
2018-06-24T05:02:51.228Z,14.70
2018-06-24T05:05:20.141Z,14.80
2018-06-24T05:10:17.692Z,14.80
2018-06-24T05:12:46.632Z,14.80
2018-06-24T05:15:15.553Z,14.60
2018-06-24T05:17:44.493Z,14.60
2018-06-24T05:20:13.380Z,14.60
2018-06-24T05:22:42.295Z,14.50
2018-06-24T05:25:11.203Z,14.40
2018-06-24T05:27:40.169Z,14.50
2018-06-24T05:30:09.121Z,14.70
2018-06-24T05:32:38.043Z,14.70
2018-06-24T05:35:06.973Z,15.10
2018-06-24T05:37:36.000Z,15.40
2018-06-24T05:40:04.932Z,15.60
2018-06-24T05:42:33.831Z,15.90
2018-06-24T05:45:02.764Z,16.30
2018-06-24T05:47:31.932Z,16.70
2018-06-24T05:50:01.662Z,17.30
2018-06-24T05:52:30.847Z,17.80
2018-06-24T05:54:59.752Z,17.70
2018-06-24T05:57:28.663Z,17.50
2018-06-24T05:59:57.576Z,17.80
2018-06-24T06:02:26.477Z,18.10
2018-06-24T06:04:55.403Z,18.30
2018-06-24T06:07:24.308Z,18.30
2018-06-24T06:09:53.227Z,18.70
2018-06-24T06:12:22.133Z,18.80
2018-06-24T06:14:51.807Z,19.30
2018-06-24T06:17:20.751Z,19.30
2018-06-24T06:19:49.684Z,19.60
2018-06-24T06:22:18.584Z,20.40
2018-06-24T06:24:47.525Z,21.30
2018-06-24T06:27:16.472Z,21.90
2018-06-24T06:29:45.412Z,22.50
2018-06-24T06:32:14.320Z,23.20
2018-06-24T06:34:43.479Z,24.40
2018-06-24T06:37:12.444Z,24.00
2018-06-24T06:39:41.375Z,23.70
2018-06-24T06:42:11.130Z,24.50
2018-06-24T06:44:40.124Z,24.40
2018-06-24T06:47:09.072Z,24.60
2018-06-24T06:49:38.065Z,24.50
2018-06-24T06:52:06.983Z,24.80
2018-06-24T06:54:36.288Z,25.10
2018-06-24T06:57:05.971Z,25.50
2018-06-24T06:59:35.172Z,25.80
2018-06-24T07:02:04.112Z,25.80
2018-06-24T07:04:33.053Z,26.10
2018-06-24T07:07:01.992Z,25.80
2018-06-24T07:09:30.947Z,25.80
2018-06-24T07:11:59.938Z,24.80
2018-06-24T07:14:28.909Z,24.70
2018-06-24T07:16:57.880Z,24.40
2018-06-24T07:19:26.873Z,24.10
2018-06-24T07:21:55.872Z,24.00
2018-06-24T07:24:25.386Z,23.80
2018-06-24T07:26:54.379Z,23.80
2018-06-24T07:29:23.344Z,23.70
2018-06-24T07:31:52.404Z,23.90
2018-06-24T07:36:49.931Z,22.70
2018-06-24T07:39:18.952Z,21.80
2018-06-24T07:41:47.932Z,21.40
2018-06-24T07:44:16.888Z,20.70
2018-06-24T07:46:45.880Z,20.30
2018-06-24T07:49:15.033Z,20.40
2018-06-24T07:51:43.989Z,20.50
2018-06-24T07:54:13.098Z,20.60
2018-06-24T07:56:42.121Z,21.00
2018-06-24T07:59:11.078Z,21.10
2018-06-24T08:01:40.122Z,21.30
2018-06-24T08:06:37.746Z,21.30
2018-06-24T08:09:09.093Z,21.30
2018-06-24T08:11:38.796Z,22.20
2018-06-24T08:14:07.760Z,22.20
2018-06-24T08:16:36.872Z,22.60
2018-06-24T08:19:06.116Z,23.60
2018-06-24T08:21:35.064Z,23.50
2018-06-24T08:24:04.280Z,23.60
2018-06-24T08:26:33.216Z,23.30
2018-06-24T08:31:30.774Z,22.80
2018-06-24T08:33:59.696Z,22.90
2018-06-24T08:36:28.635Z,23.00
2018-06-24T08:38:57.672Z,22.80
2018-06-24T08:41:26.576Z,23.90
2018-06-24T08:43:55.548Z,24.30
2018-06-24T08:46:24.481Z,24.80
2018-06-24T08:48:53.438Z,25.10
2018-06-24T08:51:22.412Z,26.00
2018-06-24T08:53:51.667Z,26.40
2018-06-24T08:56:20.585Z,26.20
2018-06-24T08:58:49.536Z,26.00
2018-06-24T09:01:18.496Z,25.10
2018-06-24T09:03:47.418Z,23.80
2018-06-24T09:06:16.439Z,23.30
2018-06-24T09:08:45.400Z,23.80
2018-06-24T09:11:14.537Z,24.80
2018-06-24T09:13:43.505Z,25.70
2018-06-24T09:16:12.445Z,26.40
2018-06-24T09:18:41.408Z,25.60
2018-06-24T09:21:10.355Z,26.40
2018-06-24T09:23:39.321Z,27.70
2018-06-24T09:26:08.307Z,26.90
2018-06-24T09:28:37.278Z,26.60
2018-06-24T09:31:06.279Z,27.10
2018-06-24T09:33:35.264Z,27.00
2018-06-24T09:36:04.203Z,27.00
2018-06-24T09:38:33.166Z,27.40
2018-06-24T09:41:02.159Z,27.60
2018-06-24T09:43:31.108Z,28.20
2018-06-24T09:46:00.053Z,27.80
2018-06-24T09:48:29.029Z,28.00
2018-06-24T09:50:57.990Z,27.50
2018-06-24T09:53:26.951Z,26.40
2018-06-24T09:55:55.906Z,24.80
2018-06-24T09:58:24.855Z,24.80
2018-06-24T10:00:53.835Z,24.30
2018-06-24T10:03:22.801Z,24.30
2018-06-24T10:05:51.731Z,24.20
2018-06-24T10:08:20.700Z,24.40
2018-06-24T10:10:49.651Z,24.30
2018-06-24T10:13:18.604Z,23.70
2018-06-24T10:15:47.576Z,23.60
2018-06-24T10:18:16.544Z,23.40
2018-06-24T10:20:45.583Z,23.50
2018-06-24T10:23:14.489Z,22.60
2018-06-24T10:25:43.419Z,22.20
2018-06-24T10:28:12.388Z,22.10
2018-06-24T10:30:41.455Z,22.40
2018-06-24T10:35:39.016Z,22.60
2018-06-24T10:38:07.971Z,22.50
2018-06-24T10:40:36.892Z,22.80
2018-06-24T10:43:05.843Z,22.50
2018-06-24T10:45:34.770Z,22.70
2018-06-24T10:48:03.693Z,22.80
2018-06-24T10:50:32.616Z,22.50
2018-06-24T10:53:01.633Z,22.60
2018-06-24T10:55:30.526Z,22.60
2018-06-24T10:57:59.448Z,22.20
2018-06-24T11:00:28.384Z,21.50
2018-06-24T11:02:57.339Z,21.40
2018-06-24T11:05:26.288Z,21.30
2018-06-24T11:07:55.245Z,21.50
2018-06-24T11:10:24.164Z,22.00
2018-06-24T11:12:53.133Z,22.30
2018-06-24T11:17:50.666Z,23.20
2018-06-24T11:20:19.749Z,22.80
2018-06-24T11:22:48.646Z,22.60
2018-06-24T11:25:17.592Z,22.70
2018-06-24T11:27:46.525Z,23.20
2018-06-24T11:30:15.457Z,22.70
2018-06-24T11:32:44.399Z,22.60
2018-06-24T11:35:13.339Z,22.60
2018-06-24T11:37:42.259Z,21.70
2018-06-24T11:40:11.270Z,21.30
2018-06-24T11:42:40.309Z,20.60
2018-06-24T11:45:09.279Z,20.90
2018-06-24T11:47:38.227Z,21.10
2018-06-24T11:50:07.433Z,21.40
2018-06-24T11:52:36.403Z,21.20
2018-06-24T11:55:05.517Z,21.30
2018-06-24T11:57:34.483Z,21.50
2018-06-24T12:02:32.088Z,21.30
2018-06-24T12:05:01.022Z,21.30
2018-06-24T12:07:29.980Z,20.80
2018-06-24T12:09:59.021Z,20.80
2018-06-24T12:12:27.989Z,21.30
2018-06-24T12:14:56.978Z,21.20
2018-06-24T12:17:27.727Z,21.50
2018-06-24T12:19:54.871Z,21.60
2018-06-24T12:22:23.824Z,21.20
2018-06-24T12:24:52.734Z,21.20
2018-06-24T12:27:21.680Z,21.50
2018-06-24T12:29:50.592Z,21.30
2018-06-24T12:32:19.537Z,22.00
2018-06-24T12:34:48.456Z,23.00
2018-06-24T12:37:17.354Z,22.60
2018-06-24T12:39:46.291Z,22.80
2018-06-24T12:42:16.211Z,23.20
2018-06-24T12:44:45.156Z,23.30
2018-06-24T12:47:14.084Z,22.90
2018-06-24T12:49:42.998Z,23.40
2018-06-24T12:52:12.002Z,23.50
2018-06-24T12:54:40.897Z,23.10
2018-06-24T12:57:09.836Z,23.70
2018-06-24T12:59:39.046Z,24.20
2018-06-24T13:02:07.755Z,24.00
2018-06-24T13:04:36.761Z,23.70
2018-06-24T13:07:05.830Z,23.20
2018-06-24T13:09:35.073Z,22.80
2018-06-24T13:12:04.021Z,22.50
2018-06-24T13:14:32.900Z,22.50
2018-06-24T13:17:01.859Z,22.00
2018-06-24T13:19:30.855Z,21.50
2018-06-24T13:21:59.793Z,21.60
2018-06-24T13:26:57.515Z,22.20
2018-06-24T13:31:55.620Z,22.30
2018-06-24T13:34:24.553Z,22.30
2018-06-24T13:36:53.464Z,22.90
2018-06-24T13:39:22.456Z,22.90
2018-06-24T13:41:51.332Z,23.00
2018-06-24T13:44:20.245Z,22.70
2018-06-24T13:46:49.156Z,22.10
2018-06-24T13:49:18.073Z,21.80
2018-06-24T13:51:47.008Z,21.30
2018-06-24T13:54:15.900Z,21.30
2018-06-24T13:56:44.816Z,21.30
2018-06-24T13:59:13.747Z,21.00
2018-06-24T14:01:42.659Z,21.10
2018-06-24T14:04:11.613Z,21.20
2018-06-24T14:06:40.519Z,21.10
2018-06-24T14:09:11.197Z,21.10
2018-06-24T14:11:40.117Z,20.80
2018-06-24T14:14:09.605Z,20.30
2018-06-24T14:16:38.496Z,19.90
2018-06-24T14:19:07.436Z,19.70
2018-06-24T14:21:36.677Z,19.60
2018-06-24T14:24:05.625Z,19.70
2018-06-24T14:26:34.522Z,20.00
2018-06-24T14:29:03.550Z,20.50
2018-06-24T14:31:32.579Z,20.60
2018-06-24T14:34:01.504Z,20.50
2018-06-24T14:36:30.438Z,20.20
2018-06-24T14:38:59.371Z,20.20
2018-06-24T14:41:28.312Z,20.10
2018-06-24T14:43:57.277Z,20.30
2018-06-24T14:46:26.140Z,20.60
2018-06-24T14:48:55.087Z,20.70
2018-06-24T14:51:24.003Z,21.20
2018-06-24T14:53:52.959Z,20.90
2018-06-24T14:56:22.892Z,21.40
2018-06-24T15:01:20.518Z,22.00
2018-06-24T15:03:49.403Z,21.70
2018-06-24T15:06:18.304Z,21.50
2018-06-24T15:08:47.246Z,21.60
2018-06-24T15:11:16.276Z,22.00
2018-06-24T15:13:45.518Z,22.00
2018-06-24T15:16:14.416Z,22.10
2018-06-24T15:18:43.344Z,21.50
2018-06-24T15:21:12.259Z,21.20
2018-06-24T15:23:41.210Z,21.20
2018-06-24T15:26:10.185Z,21.10
2018-06-24T15:28:39.091Z,20.80
2018-06-24T15:31:08.051Z,20.50
2018-06-24T15:33:36.963Z,20.70
2018-06-24T15:36:05.877Z,21.10
2018-06-24T15:41:03.387Z,21.30
2018-06-24T15:43:32.421Z,21.40
2018-06-24T15:46:02.309Z,21.60
2018-06-24T15:48:31.220Z,21.80
2018-06-24T15:51:00.144Z,21.90
2018-06-24T15:53:29.109Z,21.60
2018-06-24T15:55:58.072Z,21.60
2018-06-24T15:58:26.977Z,21.10
2018-06-24T16:00:56.230Z,20.70
2018-06-24T16:03:25.202Z,20.60
2018-06-24T16:08:22.949Z,20.50
2018-06-24T16:10:51.884Z,20.40
2018-06-24T16:13:20.806Z,20.50
2018-06-24T16:15:49.743Z,20.40
2018-06-24T16:18:18.678Z,20.40
2018-06-24T16:20:47.835Z,20.20
2018-06-24T16:23:16.560Z,20.10
2018-06-24T16:25:45.799Z,20.10
2018-06-24T16:28:14.712Z,20.10
2018-06-24T16:33:12.200Z,20.10
2018-06-24T16:35:41.128Z,19.90
2018-06-24T16:38:10.050Z,20.00
2018-06-24T16:40:38.964Z,20.20
2018-06-24T16:43:07.871Z,20.30
2018-06-24T16:45:37.124Z,20.20
2018-06-24T16:48:06.023Z,20.20
2018-06-24T16:50:34.962Z,20.00
2018-06-24T16:53:03.857Z,20.10
2018-06-24T16:55:32.756Z,20.10
2018-06-24T16:58:01.721Z,20.30
2018-06-24T17:00:30.668Z,20.30
2018-06-24T17:02:59.585Z,20.30
2018-06-24T17:05:29.544Z,20.40
2018-06-24T17:07:58.453Z,20.30
2018-06-24T17:10:27.384Z,20.10
2018-06-24T17:12:56.296Z,19.80
2018-06-24T17:15:25.231Z,19.90
2018-06-24T17:17:54.134Z,19.70
2018-06-24T17:20:23.271Z,19.50
2018-06-24T17:22:52.489Z,19.40
2018-06-24T17:25:21.440Z,19.30
2018-06-24T17:27:50.603Z,19.10
2018-06-24T17:30:19.520Z,19.20
2018-06-24T17:32:48.457Z,19.20
2018-06-24T17:35:17.391Z,19.20
2018-06-24T17:37:46.292Z,19.20
2018-06-24T17:40:15.248Z,19.20
2018-06-24T17:42:44.172Z,19.00
2018-06-24T17:45:13.074Z,18.90
2018-06-24T17:47:41.992Z,18.70
2018-06-24T17:50:10.942Z,18.70
2018-06-24T17:52:39.938Z,18.70
2018-06-24T17:55:08.895Z,18.70
2018-06-24T17:57:37.796Z,18.50
2018-06-24T18:00:06.711Z,18.50
2018-06-24T18:05:04.717Z,18.30
2018-06-24T18:07:33.792Z,18.20
2018-06-24T18:10:02.702Z,18.20
2018-06-24T18:12:31.657Z,18.30
2018-06-24T18:15:00.590Z,18.30
2018-06-24T18:17:29.636Z,18.30
2018-06-24T18:19:58.707Z,18.30
2018-06-24T18:22:27.617Z,18.10
2018-06-24T18:24:56.538Z,18.20
2018-06-24T18:27:25.472Z,18.10
2018-06-24T18:29:54.448Z,18.00
2018-06-24T18:32:23.456Z,17.90
2018-06-24T18:34:52.350Z,17.90
2018-06-24T18:37:21.304Z,17.80
2018-06-24T18:39:50.248Z,17.70
2018-06-24T18:42:19.176Z,17.70
2018-06-24T18:44:48.109Z,17.60
2018-06-24T18:47:17.036Z,17.60
2018-06-24T18:49:45.997Z,17.50
2018-06-24T18:52:14.964Z,17.50
2018-06-24T18:54:43.910Z,17.40
2018-06-24T18:57:12.846Z,17.40
2018-06-24T18:59:41.787Z,17.50
2018-06-24T19:02:10.720Z,17.50
2018-06-24T19:04:39.706Z,17.40
2018-06-24T19:07:08.618Z,17.30
2018-06-24T19:09:37.637Z,17.30
2018-06-24T19:12:06.685Z,17.30
2018-06-24T19:14:35.572Z,17.30
2018-06-24T19:17:04.536Z,17.20
2018-06-24T19:22:11.771Z,17.10
2018-06-24T19:24:40.691Z,17.10
2018-06-24T19:29:38.233Z,17.00
2018-06-24T19:32:07.283Z,16.90
2018-06-24T19:34:36.735Z,16.90
2018-06-24T19:37:05.602Z,16.90
2018-06-24T19:39:34.516Z,16.90
2018-06-24T19:42:03.445Z,16.90
2018-06-24T19:44:32.398Z,16.80
2018-06-24T19:47:01.386Z,16.80
2018-06-24T19:49:30.298Z,16.80
2018-06-24T19:51:59.246Z,16.80
2018-06-24T19:54:28.201Z,16.80
2018-06-24T19:56:57.175Z,16.80
2018-06-24T19:59:26.131Z,16.70
2018-06-24T20:01:55.044Z,16.70
2018-06-24T20:04:23.977Z,16.70
2018-06-24T20:06:52.939Z,16.80
2018-06-24T20:09:21.963Z,16.70
2018-06-24T20:11:50.913Z,16.70
2018-06-24T20:14:19.868Z,16.60
2018-06-24T20:16:48.796Z,16.60
2018-06-24T20:19:17.680Z,16.50
2018-06-24T20:21:46.637Z,16.60
2018-06-24T20:24:15.528Z,16.70
2018-06-24T20:26:44.497Z,16.60
2018-06-24T20:29:13.420Z,16.60
2018-06-24T20:31:42.346Z,16.60
2018-06-24T20:34:11.293Z,16.70
2018-06-24T20:36:40.428Z,16.60
2018-06-24T20:39:09.899Z,16.60
2018-06-24T20:41:38.844Z,16.70
2018-06-24T20:44:07.891Z,16.70
2018-06-24T20:46:36.832Z,16.60
2018-06-24T20:49:06.362Z,16.60
2018-06-24T20:51:35.305Z,16.60
2018-06-24T20:54:04.231Z,16.60
2018-06-24T20:56:33.140Z,16.60
2018-06-24T20:59:02.052Z,16.60
2018-06-24T21:01:30.982Z,16.50
2018-06-24T21:03:59.981Z,16.60
2018-06-24T21:06:28.847Z,16.60
2018-06-24T21:08:57.792Z,16.60
2018-06-24T21:11:26.698Z,16.60
2018-06-24T21:13:55.619Z,16.60
2018-06-24T21:16:24.557Z,16.50
2018-06-24T21:18:53.511Z,16.50
2018-06-24T21:21:22.524Z,16.50
2018-06-24T21:23:51.424Z,16.50
2018-06-24T21:26:20.327Z,16.50
2018-06-24T21:28:49.220Z,16.50
2018-06-24T21:31:18.148Z,16.40
2018-06-24T21:33:47.123Z,16.40
2018-06-24T21:36:16.616Z,16.40
2018-06-24T21:38:45.516Z,16.40
2018-06-24T21:41:14.445Z,16.40
2018-06-24T21:43:43.360Z,16.40
2018-06-24T21:48:40.818Z,16.40
2018-06-24T21:51:09.749Z,16.30
2018-06-24T21:53:39.011Z,16.30
2018-06-24T21:56:08.136Z,16.20
2018-06-24T21:58:37.186Z,16.20
2018-06-24T22:01:06.193Z,16.20
2018-06-24T22:03:35.104Z,16.20
2018-06-24T22:06:04.007Z,16.10
2018-06-24T22:08:32.983Z,16.00
2018-06-24T22:11:01.888Z,16.00
2018-06-24T22:13:30.856Z,16.00
2018-06-24T22:15:59.788Z,15.90
2018-06-24T22:18:28.696Z,15.90
2018-06-24T22:20:57.712Z,15.90
2018-06-24T22:23:26.605Z,15.80
2018-06-24T22:25:55.840Z,15.80
2018-06-24T22:28:24.825Z,15.80
2018-06-24T22:30:53.724Z,15.80
2018-06-24T22:33:22.734Z,15.70
2018-06-24T22:38:27.108Z,15.70
2018-06-24T22:40:56.355Z,15.60
2018-06-24T22:43:25.741Z,15.60
